sensor_id;sensor_type;location;lat;lon;timestamp;pressure;altitude;pressure_sealevel;temperature;humidity
55757;BME280;41676;44.610;44.078;2023-07-29T04:13:09;99998.13;;;30.06;58.39
55757;BME280;41676;44.610;44.078;2023-07-29T04:18:10;99935.38;;;29.95;57.10
55757;BME280;41676;44.610;44.078;2023-07-29T04:23:10;99936.81;;;30.43;55.18
55757;BME280;41676;44.610;44.078;2023-07-29T04:28:11;99901.03;;;30.25;52.19
55757;BME280;41676;44.610;44.078;2023-07-29T04:33:12;100015.53;;;30.87;51.93
55757;BME280;41676;44.610;44.078;2023-07-29T04:38:13;99894.47;;;30.13;51.29
55757;BME280;41676;44.610;44.078;2023-07-29T04:43:13;99953.28;;;30.29;51.13
55757;BME280;41676;44.610;44.078;2023-07-29T04:48:14;99941.91;;;29.72;50.33
55757;BME280;41676;44.610;44.078;2023-07-29T04:53:15;99953.97;;;29.71;49.44
55757;BME280;41676;44.610;44.078;2023-07-29T04:58:15;100008.22;;;29.69;49.01
55757;BME280;41676;44.610;44.078;2023-07-29T05:03:16;100021.97;;;29.50;49.63
55757;BME280;41676;44.610;44.078;2023-07-29T05:08:17;100016.53;;;29.31;49.17
55757;BME280;41676;44.610;44.078;2023-07-29T05:13:18;100011.91;;;28.61;48.29
55757;BME280;41676;44.610;44.078;2023-07-29T05:18:19;100025.66;;;28.13;49.70
55757;BME280;41676;44.610;44.078;2023-07-29T05:23:20;99992.94;;;27.36;49.85
55757;BME280;41676;44.610;44.078;2023-07-29T05:28:21;99949.13;;;26.58;50.83
55757;BME280;41676;44.610;44.078;2023-07-29T05:33:21;99899.09;;;26.05;50.46
55757;BME280;41676;44.610;44.078;2023-07-29T05:38:22;99878.81;;;25.82;49.92
55757;BME280;41676;44.610;44.078;2023-07-29T05:43:26;99968.16;;;26.19;50.86
55757;BME280;41676;44.610;44.078;2023-07-29T05:48:27;100029.97;;;26.68;51.02
55757;BME280;41676;44.610;44.078;2023-07-29T05:53:28;99956.25;;;26.05;51.12
55757;BME280;41676;44.610;44.078;2023-07-29T05:58:29;100014.91;;;26.36;52.01
55757;BME280;41676;44.610;44.078;2023-07-29T06:03:31;100019.78;;;26.39;51.30
55757;BME280;41676;44.610;44.078;2023-07-29T06:08:32;100023.63;;;26.33;51.76
55757;BME280;41676;44.610;44.078;2023-07-29T06:13:34;100035.00;;;26.46;52.21
55757;BME280;41676;44.610;44.078;2023-07-29T06:18:35;100009.63;;;26.55;53.11
55757;BME280;41676;44.610;44.078;2023-07-29T06:23:36;100015.94;;;26.90;53.36
55757;BME280;41676;44.610;44.078;2023-07-29T06:28:37;99965.16;;;26.65;52.94
55757;BME280;41676;44.610;44.078;2023-07-29T06:33:37;99930.47;;;26.36;52.67
55757;BME280;41676;44.610;44.078;2023-07-29T06:38:38;99814.97;;;25.64;52.57
55757;BME280;41676;44.610;44.078;2023-07-29T06:43:39;99922.28;;;26.41;53.34
55757;BME280;41676;44.610;44.078;2023-07-29T06:48:40;99955.81;;;26.76;53.15
55757;BME280;41676;44.610;44.078;2023-07-29T06:53:41;99999.72;;;27.04;52.24
55757;BME280;41676;44.610;44.078;2023-07-29T06:58:41;99928.91;;;26.64;52.45
55757;BME280;41676;44.610;44.078;2023-07-29T07:03:42;99964.59;;;27.02;52.90
55757;BME280;41676;44.610;44.078;2023-07-29T07:08:43;99981.88;;;27.22;52.85
55757;BME280;41676;44.610;44.078;2023-07-29T07:13:44;99997.19;;;27.47;52.29
55757;BME280;41676;44.610;44.078;2023-07-29T07:18:45;99990.19;;;27.36;51.86
55757;BME280;41676;44.610;44.078;2023-07-29T07:23:46;99944.06;;;27.10;50.64
55757;BME280;41676;44.610;44.078;2023-07-29T07:28:46;99963.47;;;27.38;50.90
55757;BME280;41676;44.610;44.078;2023-07-29T07:33:47;99966.88;;;27.72;50.19
55757;BME280;41676;44.610;44.078;2023-07-29T07:38:48;99968.25;;;27.70;49.16
55757;BME280;41676;44.610;44.078;2023-07-29T07:43:49;99965.16;;;27.82;49.34
55757;BME280;41676;44.610;44.078;2023-07-29T07:48:49;99970.28;;;28.07;48.56
55757;BME280;41676;44.610;44.078;2023-07-29T07:53:50;99932.44;;;27.76;47.80
55757;BME280;41676;44.610;44.078;2023-07-29T07:58:51;99894.72;;;27.84;47.68
55757;BME280;41676;44.610;44.078;2023-07-29T08:03:52;99945.94;;;28.30;45.88
55757;BME280;41676;44.610;44.078;2023-07-29T08:08:52;99866.31;;;28.04;46.26
55757;BME280;41676;44.610;44.078;2023-07-29T08:13:53;99865.19;;;28.23;45.14
55757;BME280;41676;44.610;44.078;2023-07-29T08:18:54;99927.81;;;28.72;46.61
55757;BME280;41676;44.610;44.078;2023-07-29T08:23:55;99913.59;;;28.56;44.72
55757;BME280;41676;44.610;44.078;2023-07-29T08:28:55;99900.75;;;28.56;45.32
55757;BME280;41676;44.610;44.078;2023-07-29T08:33:56;99903.34;;;28.66;45.46
55757;BME280;41676;44.610;44.078;2023-07-29T08:38:57;99826.59;;;28.63;46.17
55757;BME280;41676;44.610;44.078;2023-07-29T08:44:12;99848.69;;;28.80;44.91
55757;BME280;41676;44.610;44.078;2023-07-29T08:49:21;99900.22;;;29.20;43.16
55757;BME280;41676;44.610;44.078;2023-07-29T08:54:23;99857.13;;;28.84;44.33
55757;BME280;41676;44.610;44.078;2023-07-29T08:59:25;99828.03;;;28.88;43.78
55757;BME280;41676;44.610;44.078;2023-07-29T09:04:27;99880.16;;;29.38;42.94
55757;BME280;41676;44.610;44.078;2023-07-29T09:09:29;99827.78;;;29.17;41.18
55757;BME280;41676;44.610;44.078;2023-07-29T09:14:30;99861.81;;;29.66;41.20
55757;BME280;41676;44.610;44.078;2023-07-29T09:19:32;99856.03;;;29.40;41.21
55757;BME280;41676;44.610;44.078;2023-07-29T09:24:33;99854.41;;;29.67;41.36
55757;BME280;41676;44.610;44.078;2023-07-29T09:29:35;99843.84;;;29.74;41.21
55757;BME280;41676;44.610;44.078;2023-07-29T09:34:41;99734.66;;;29.22;40.39
55757;BME280;41676;44.610;44.078;2023-07-29T09:39:46;99820.81;;;29.75;40.47
55757;BME280;41676;44.610;44.078;2023-07-29T09:44:49;99821.75;;;29.70;40.54
55757;BME280;41676;44.610;44.078;2023-07-29T09:49:51;99830.44;;;29.58;40.10
55757;BME280;41676;44.610;44.078;2023-07-29T09:54:52;99830.69;;;29.62;39.65
55757;BME280;41676;44.610;44.078;2023-07-29T09:59:56;99832.13;;;29.32;39.96
55757;BME280;41676;44.610;44.078;2023-07-29T10:04:57;99818.25;;;29.28;39.88
55757;BME280;41676;44.610;44.078;2023-07-29T10:10:00;99784.59;;;29.28;40.70
55757;BME280;41676;44.610;44.078;2023-07-29T10:15:04;99793.03;;;29.82;40.45
55757;BME280;41676;44.610;44.078;2023-07-29T10:20:07;99787.41;;;30.09;39.27
55757;BME280;41676;44.610;44.078;2023-07-29T10:25:25;99810.78;;;30.52;39.48
55757;BME280;41676;44.610;44.078;2023-07-29T10:30:32;99810.84;;;30.38;39.67
55757;BME280;41676;44.610;44.078;2023-07-29T10:35:34;99807.47;;;30.18;39.69
55757;BME280;41676;44.610;44.078;2023-07-29T10:45:45;99797.00;;;30.74;39.21
55757;BME280;41676;44.610;44.078;2023-07-29T10:50:46;99748.16;;;30.14;38.85
55757;BME280;41676;44.610;44.078;2023-07-29T10:55:47;99725.78;;;29.03;40.43
55757;BME280;41676;44.610;44.078;2023-07-29T11:00:49;99799.34;;;29.54;40.05
55757;BME280;41676;44.610;44.078;2023-07-29T11:05:51;99783.94;;;30.17;39.86
55757;BME280;41676;44.610;44.078;2023-07-29T11:11:01;99751.22;;;29.90;40.15
55757;BME280;41676;44.610;44.078;2023-07-29T11:16:03;99724.28;;;29.83;39.54
55757;BME280;41676;44.610;44.078;2023-07-29T11:21:04;99712.28;;;29.56;38.92
55757;BME280;41676;44.610;44.078;2023-07-29T11:26:05;99741.31;;;29.80;38.57
55757;BME280;41676;44.610;44.078;2023-07-29T11:31:06;99762.56;;;30.51;38.64
55757;BME280;41676;44.610;44.078;2023-07-29T11:36:17;99749.91;;;30.63;37.71
55757;BME280;41676;44.610;44.078;2023-07-29T11:41:23;99769.69;;;30.91;37.29
55757;BME280;41676;44.610;44.078;2023-07-29T11:46:24;99753.38;;;30.86;36.81
55757;BME280;41676;44.610;44.078;2023-07-29T11:51:26;99765.03;;;31.01;36.66
55757;BME280;41676;44.610;44.078;2023-07-29T11:56:27;99743.88;;;30.92;35.63
55757;BME280;41676;44.610;44.078;2023-07-29T12:01:28;99700.56;;;30.72;36.31
55757;BME280;41676;44.610;44.078;2023-07-29T12:06:29;99769.38;;;30.84;35.71
55757;BME280;41676;44.610;44.078;2023-07-29T12:11:32;99698.78;;;30.67;35.53
55757;BME280;41676;44.610;44.078;2023-07-29T12:16:40;99768.31;;;31.20;35.00
55757;BME280;41676;44.610;44.078;2023-07-29T12:21:42;99706.88;;;30.73;34.96
55757;BME280;41676;44.610;44.078;2023-07-29T12:26:44;99762.03;;;31.28;35.23
55757;BME280;41676;44.610;44.078;2023-07-29T12:31:45;99764.09;;;31.14;34.92
55757;BME280;41676;44.610;44.078;2023-07-29T12:36:48;99759.94;;;31.25;35.96
55757;BME280;41676;44.610;44.078;2023-07-29T12:41:49;99753.69;;;31.42;35.82
55757;BME280;41676;44.610;44.078;2023-07-29T12:46:51;99738.72;;;30.91;34.78
55757;BME280;41676;44.610;44.078;2023-07-29T12:51:52;99763.88;;;30.93;34.13
55757;BME280;41676;44.610;44.078;2023-07-29T12:56:53;99758.00;;;30.77;34.36
55757;BME280;41676;44.610;44.078;2023-07-29T13:01:54;99751.63;;;30.90;34.00
55757;BME280;41676;44.610;44.078;2023-07-29T13:06:54;99756.94;;;30.96;34.34
55757;BME280;41676;44.610;44.078;2023-07-29T13:11:56;99720.63;;;30.81;34.52
55757;BME280;41676;44.610;44.078;2023-07-29T13:16:57;99757.78;;;31.05;34.16
55757;BME280;41676;44.610;44.078;2023-07-29T13:21:58;99751.13;;;30.88;34.32
55757;BME280;41676;44.610;44.078;2023-07-29T13:26:59;99729.56;;;30.64;33.96
55757;BME280;41676;44.610;44.078;2023-07-29T13:32:00;99722.13;;;30.56;33.97
55757;BME280;41676;44.610;44.078;2023-07-29T13:37:00;99734.50;;;30.54;33.25
55757;BME280;41676;44.610;44.078;2023-07-29T13:42:01;99756.66;;;30.66;33.44
55757;BME280;41676;44.610;44.078;2023-07-29T13:47:02;99699.22;;;30.21;33.59
55757;BME280;41676;44.610;44.078;2023-07-29T13:52:03;99670.59;;;30.05;33.38
55757;BME280;41676;44.610;44.078;2023-07-29T13:57:04;99630.47;;;29.69;33.33
55757;BME280;41676;44.610;44.078;2023-07-29T14:02:07;99759.00;;;30.50;34.10
55757;BME280;41676;44.610;44.078;2023-07-29T14:07:08;99736.06;;;30.37;34.84
55757;BME280;41676;44.610;44.078;2023-07-29T14:12:09;99702.03;;;30.07;34.19
55757;BME280;41676;44.610;44.078;2023-07-29T14:17:15;99758.16;;;30.41;34.49
55757;BME280;41676;44.610;44.078;2023-07-29T14:22:15;99678.28;;;29.71;34.20
55757;BME280;41676;44.610;44.078;2023-07-29T14:27:16;99687.94;;;29.69;33.87
55757;BME280;41676;44.610;44.078;2023-07-29T14:32:17;99741.25;;;29.94;34.07
55757;BME280;41676;44.610;44.078;2023-07-29T14:37:18;99787.00;;;29.93;34.86
55757;BME280;41676;44.610;44.078;2023-07-29T14:42:18;99752.84;;;29.54;34.95
55757;BME280;41676;44.610;44.078;2023-07-29T14:47:19;99759.22;;;29.64;36.05
55757;BME280;41676;44.610;44.078;2023-07-29T14:52:20;99783.03;;;29.63;36.06
55757;BME280;41676;44.610;44.078;2023-07-29T14:57:21;99769.06;;;29.51;36.66
55757;BME280;41676;44.610;44.078;2023-07-29T15:02:22;99768.97;;;29.56;36.71
55757;BME280;41676;44.610;44.078;2023-07-29T15:07:23;99759.16;;;29.41;36.70
55757;BME280;41676;44.610;44.078;2023-07-29T15:12:24;99808.28;;;29.46;36.26
55757;BME280;41676;44.610;44.078;2023-07-29T15:17:25;99697.13;;;28.59;36.30
55757;BME280;41676;44.610;44.078;2023-07-29T15:22:26;99798.22;;;29.05;36.64
55757;BME280;41676;44.610;44.078;2023-07-29T15:27:28;99782.59;;;28.78;36.44
55757;BME280;41676;44.610;44.078;2023-07-29T15:32:29;99817.91;;;28.88;37.27
55757;BME280;41676;44.610;44.078;2023-07-29T15:37:29;99763.91;;;28.20;38.35
55757;BME280;41676;44.610;44.078;2023-07-29T15:42:30;99811.25;;;28.15;39.53
55757;BME280;41676;44.610;44.078;2023-07-29T15:47:31;99834.16;;;28.01;40.27
55757;BME280;41676;44.610;44.078;2023-07-29T15:52:32;99823.72;;;27.65;41.04
55757;BME280;41676;44.610;44.078;2023-07-29T15:57:33;99854.16;;;27.53;42.18
55757;BME280;41676;44.610;44.078;2023-07-29T16:02:34;99747.28;;;26.60;41.38
55757;BME280;41676;44.610;44.078;2023-07-29T16:07:34;99865.28;;;27.08;42.14
55757;BME280;41676;44.610;44.078;2023-07-29T16:12:35;99844.66;;;26.73;42.01
55757;BME280;41676;44.610;44.078;2023-07-29T16:17:38;99878.09;;;26.84;42.54
55757;BME280;41676;44.610;44.078;2023-07-29T16:22:39;99858.16;;;26.20;44.16
55757;BME280;41676;44.610;44.078;2023-07-29T16:27:39;99813.38;;;25.58;45.54
55757;BME280;41676;44.610;44.078;2023-07-29T16:32:40;99898.44;;;25.68;47.10
55757;BME280;41676;44.610;44.078;2023-07-29T16:37:41;99899.91;;;25.40;47.92
55757;BME280;41676;44.610;44.078;2023-07-29T16:42:42;99907.56;;;25.18;49.39
55757;BME280;41676;44.610;44.078;2023-07-29T16:47:43;99887.50;;;24.83;50.53
55757;BME280;41676;44.610;44.078;2023-07-29T16:52:44;99895.66;;;24.57;51.27
55757;BME280;41676;44.610;44.078;2023-07-29T16:57:45;99928.78;;;24.49;52.37
55757;BME280;41676;44.610;44.078;2023-07-29T17:02:46;99872.47;;;23.88;53.75
55757;BME280;41676;44.610;44.078;2023-07-29T17:07:46;99940.88;;;24.11;54.72
55757;BME280;41676;44.610;44.078;2023-07-29T17:12:47;99952.75;;;23.89;55.94
55757;BME280;41676;44.610;44.078;2023-07-29T17:17:48;99910.50;;;23.41;56.95
55757;BME280;41676;44.610;44.078;2023-07-29T17:22:49;99859.47;;;22.85;57.27
55757;BME280;41676;44.610;44.078;2023-07-29T17:27:50;99905.28;;;22.92;58.98
55757;BME280;41676;44.610;44.078;2023-07-29T17:32:51;99935.84;;;22.87;60.72
55757;BME280;41676;44.610;44.078;2023-07-29T17:37:52;99946.63;;;22.82;61.18
55757;BME280;41676;44.610;44.078;2023-07-29T17:42:52;99930.94;;;22.52;62.40
55757;BME280;41676;44.610;44.078;2023-07-29T17:47:53;99979.22;;;22.60;63.33
55757;BME280;41676;44.610;44.078;2023-07-29T17:52:54;99959.16;;;22.29;63.72
55757;BME280;41676;44.610;44.078;2023-07-29T17:57:58;99979.66;;;22.25;64.54
55757;BME280;41676;44.610;44.078;2023-07-29T18:03:00;99993.56;;;22.11;66.01
55757;BME280;41676;44.610;44.078;2023-07-29T18:08:00;99995.81;;;21.98;67.55
55757;BME280;41676;44.610;44.078;2023-07-29T18:13:01;99988.78;;;21.75;68.01
55757;BME280;41676;44.610;44.078;2023-07-29T18:18:02;99903.00;;;21.09;68.23
55757;BME280;41676;44.610;44.078;2023-07-29T18:23:04;99915.59;;;21.04;69.02
55757;BME280;41676;44.610;44.078;2023-07-29T18:28:05;99988.09;;;21.46;69.88
55757;BME280;41676;44.610;44.078;2023-07-29T18:33:06;100001.63;;;21.46;70.79
55757;BME280;41676;44.610;44.078;2023-07-29T18:38:08;99993.00;;;21.32;71.21
55757;BME280;41676;44.610;44.078;2023-07-29T18:43:09;99997.81;;;21.30;72.27
55757;BME280;41676;44.610;44.078;2023-07-29T18:48:10;99876.47;;;20.39;73.21
55757;BME280;41676;44.610;44.078;2023-07-29T18:53:11;99963.38;;;20.86;74.13
55757;BME280;41676;44.610;44.078;2023-07-29T18:58:11;99993.97;;;21.09;74.77
55757;BME280;41676;44.610;44.078;2023-07-29T19:03:12;99998.34;;;21.10;75.64
55757;BME280;41676;44.610;44.078;2023-07-29T19:08:14;100009.31;;;21.03;76.00
55757;BME280;41676;44.610;44.078;2023-07-29T19:13:15;99957.25;;;20.74;76.32
55757;BME280;41676;44.610;44.078;2023-07-29T19:18:16;99923.84;;;20.46;76.91
55757;BME280;41676;44.610;44.078;2023-07-29T19:23:17;99861.72;;;20.13;76.59
55757;BME280;41676;44.610;44.078;2023-07-29T19:28:18;99940.38;;;20.67;76.79
55757;BME280;41676;44.610;44.078;2023-07-29T19:33:19;99912.16;;;20.58;77.25
55757;BME280;41676;44.610;44.078;2023-07-29T19:38:20;99877.38;;;20.44;76.92
55757;BME280;41676;44.610;44.078;2023-07-29T19:43:21;99913.66;;;20.65;77.29
55757;BME280;41676;44.610;44.078;2023-07-29T19:48:24;100004.06;;;21.30;77.39
55757;BME280;41676;44.610;44.078;2023-07-29T19:53:25;99867.06;;;20.41;77.57
55757;BME280;41676;44.610;44.078;2023-07-29T19:58:26;99924.09;;;20.79;78.26
55757;BME280;41676;44.610;44.078;2023-07-29T20:03:26;99929.28;;;20.80;78.29
55757;BME280;41676;44.610;44.078;2023-07-29T20:08:27;99882.88;;;20.49;78.69
55757;BME280;41676;44.610;44.078;2023-07-29T20:13:28;99903.56;;;20.61;79.60
55757;BME280;41676;44.610;44.078;2023-07-29T20:18:29;100020.69;;;21.22;80.45
55757;BME280;41676;44.610;44.078;2023-07-29T20:23:30;100023.97;;;21.24;80.99
55757;BME280;41676;44.610;44.078;2023-07-29T20:28:30;99924.75;;;20.52;81.37
55757;BME280;41676;44.610;44.078;2023-07-29T20:33:31;100020.34;;;21.02;81.36
55757;BME280;41676;44.610;44.078;2023-07-29T20:38:32;99939.63;;;20.55;82.23
55757;BME280;41676;44.610;44.078;2023-07-29T20:43:33;99968.28;;;20.72;81.99
55757;BME280;41676;44.610;44.078;2023-07-29T20:48:34;99934.81;;;20.57;81.73
55757;BME280;41676;44.610;44.078;2023-07-29T20:53:35;99993.44;;;21.07;81.26
55757;BME280;41676;44.610;44.078;2023-07-29T20:58:36;99968.13;;;20.96;81.96
55757;BME280;41676;44.610;44.078;2023-07-29T21:03:37;99970.00;;;20.79;82.93
55757;BME280;41676;44.610;44.078;2023-07-29T21:08:38;99937.44;;;20.40;83.67
55757;BME280;41676;44.610;44.078;2023-07-29T21:13:39;100029.66;;;20.77;83.97
55757;BME280;41676;44.610;44.078;2023-07-29T21:18:40;99897.75;;;19.78;83.99
55757;BME280;41676;44.610;44.078;2023-07-29T21:23:41;100033.88;;;20.73;84.00
55757;BME280;41676;44.610;44.078;2023-07-29T21:28:41;99802.13;;;19.40;83.43
55757;BME280;41676;44.610;44.078;2023-07-29T21:33:42;99830.06;;;19.63;83.12
55757;BME280;41676;44.610;44.078;2023-07-29T21:38:43;99751.59;;;19.19;83.63
55757;BME280;41676;44.610;44.078;2023-07-29T21:43:44;99756.88;;;19.13;84.56
55757;BME280;41676;44.610;44.078;2023-07-29T21:48:45;99766.97;;;19.06;85.28
55757;BME280;41676;44.610;44.078;2023-07-29T21:53:46;99977.66;;;20.13;85.93
55757;BME280;41676;44.610;44.078;2023-07-29T21:58:47;99990.97;;;20.02;86.38
55757;BME280;41676;44.610;44.078;2023-07-29T22:03:48;100032.78;;;20.17;86.65
55757;BME280;41676;44.610;44.078;2023-07-29T22:08:48;99985.34;;;19.92;86.51
55757;BME280;41676;44.610;44.078;2023-07-29T22:13:50;99942.50;;;19.79;86.33
55757;BME280;41676;44.610;44.078;2023-07-29T22:18:50;99945.75;;;19.93;86.08
55757;BME280;41676;44.610;44.078;2023-07-29T22:23:51;99962.41;;;20.18;85.07
55757;BME280;41676;44.610;44.078;2023-07-29T22:28:52;99893.69;;;19.92;84.34
55757;BME280;41676;44.610;44.078;2023-07-29T22:33:53;100016.25;;;20.82;82.60
55757;BME280;41676;44.610;44.078;2023-07-29T22:38:54;99915.53;;;20.19;80.72
55757;BME280;41676;44.610;44.078;2023-07-29T22:43:54;99889.09;;;20.04;80.91
55757;BME280;41676;44.610;44.078;2023-07-29T22:48:55;99985.88;;;20.58;81.58
55757;BME280;41676;44.610;44.078;2023-07-29T22:53:56;99961.28;;;20.31;81.65
55757;BME280;41676;44.610;44.078;2023-07-29T22:58:57;99869.56;;;19.86;80.91
55757;BME280;41676;44.610;44.078;2023-07-29T23:03:59;99948.59;;;20.43;81.43
55757;BME280;41676;44.610;44.078;2023-07-29T23:09:00;100022.78;;;20.86;81.44
55757;BME280;41676;44.610;44.078;2023-07-29T23:14:01;99919.59;;;20.22;80.45
55757;BME280;41676;44.610;44.078;2023-07-29T23:19:01;99898.97;;;20.16;81.11
55757;BME280;41676;44.610;44.078;2023-07-29T23:24:02;99963.81;;;20.49;81.35
55757;BME280;41676;44.610;44.078;2023-07-29T23:29:03;100025.72;;;20.85;80.75
55757;BME280;41676;44.610;44.078;2023-07-29T23:34:04;99951.56;;;20.30;81.43
55757;BME280;41676;44.610;44.078;2023-07-29T23:39:05;99883.56;;;19.71;81.53
55757;BME280;41676;44.610;44.078;2023-07-29T23:44:05;100004.22;;;20.33;82.46
55757;BME280;41676;44.610;44.078;2023-07-29T23:49:06;100041.69;;;20.58;83.44
55757;BME280;41676;44.610;44.078;2023-07-29T23:54:07;99914.63;;;19.73;83.93
55757;BME280;41676;44.610;44.078;2023-07-29T23:59:08;100014.31;;;20.37;84.45
